Terminal Aerodrome Forecast
Issued by NWS

Home | Current Version | Previous Version | Text Only | Print | Product List | Glossary On
Versions: 1 2 3 4 5 6 7 8 9 10 11 12
000
FTUS44 KEPZ 180500
TAFLRU
TAF
KLRU 180520Z 1806/1906 13008KT P6SM SCT250
     FM181800 16010G20KT P6SM BKN250
     FM182100 22012G22KT P6SM BKN120 OVC200
     FM190300 19011KT P6SM VCTS SCT070CB BKN100 OVC200
      TEMPO 1903/1906 VRB27G40KT 6SM -TSRA BKN060CB OVC100=

USA.gov is the U.S. government's official web portal to all federal, state and local government web resources and services.